Terminal Aerodrome Forecast
Issued by NWS Lubbock, TX

Home | Current Version | Previous Version | Text Only | Print | Product List | Glossary On
Versions: 1 2 3 4 5 6 7 8 9 10 11 12 13 14
493
FTUS44 KLUB 192334
TAFLBB
TAF
KLBB 192334Z 2000/2024 20014G18KT P6SM SCT070 OVC090
     FM200300 25009KT P6SM SCT250
     FM201600 33015KT P6SM FEW250=

USA.gov is the U.S. government's official web portal to all federal, state and local government web resources and services.